Time;durP1;ratioP1;P1;durP2;ratioP2;P2;SDS_P1;SDS_P2;PMS_P1;PMS_P2;Temp;Humidity;BMP_temperature;BMP_pressure;BME280_temperature;BME280_humidity;BME280_pressure;Samples;Min_cycle;Max_cycle;Signal;HPM_P1;HPM_P2
2023/12/27 00:00:31;;;;;;;1.10;0.35;;;2.30;99.90;;;;;;4950302;28;20069;-84
2023/12/27 00:02:58;;;;;;;2.08;0.98;;;2.30;99.90;;;;;;4970094;28;20523;-84
2023/12/27 00:05:23;;;;;;;3.40;1.02;;;2.20;99.90;;;;;;4968573;28;20042;-84
2023/12/27 00:07:49;;;;;;;8.38;0.30;;;2.30;99.90;;;;;;4967371;28;20395;-84
2023/12/27 00:10:15;;;;;;;0.30;0.17;;;2.20;99.90;;;;;;4970261;28;20043;-84
2023/12/27 00:12:41;;;;;;;0.30;0.15;;;2.20;99.90;;;;;;4951135;28;20035;-84
2023/12/27 00:15:07;;;;;;;0.73;0.20;;;2.10;99.90;;;;;;4969924;28;20046;-84
2023/12/27 00:17:32;;;;;;;0.63;0.63;;;2.10;99.90;;;;;;4966657;28;20042;-84
2023/12/27 00:19:58;;;;;;;0.08;0.00;;;2.10;99.90;;;;;;4972366;28;20030;-84
2023/12/27 00:22:24;;;;;;;2.28;0.63;;;2.10;99.90;;;;;;4965751;28;20120;-84
2023/12/27 00:24:50;;;;;;;2.40;0.82;;;2.10;99.90;;;;;;4953322;28;20047;-84
2023/12/27 00:27:16;;;;;;;0.03;0.03;;;2.10;99.90;;;;;;4951206;28;20459;-84
2023/12/27 00:29:41;;;;;;;0.10;0.10;;;2.10;99.90;;;;;;4970749;28;20129;-84
2023/12/27 00:32:09;;;;;;;0.00;0.00;;;2.00;99.90;;;;;;4950136;28;20043;-84
2023/12/27 00:34:35;;;;;;;0.05;0.05;;;2.00;99.90;;;;;;4970637;28;20520;-84
2023/12/27 00:37:02;;;;;;;0.45;0.35;;;2.00;99.90;;;;;;4969774;28;20193;-84
2023/12/27 00:39:27;;;;;;;0.30;0.20;;;2.00;99.90;;;;;;4953155;28;20579;-84
2023/12/27 00:41:53;;;;;;;1.85;0.28;;;2.00;99.90;;;;;;4969145;28;20133;-84
2023/12/27 00:44:19;;;;;;;2.20;0.60;;;1.90;99.90;;;;;;4967928;28;20522;-83
2023/12/27 00:46:45;;;;;;;0.28;0.25;;;2.00;99.90;;;;;;4954629;28;20047;-83
2023/12/27 00:49:11;;;;;;;1.48;0.57;;;2.00;99.90;;;;;;4948332;28;20063;-84
2023/12/27 00:51:36;;;;;;;7.82;1.02;;;2.00;99.90;;;;;;4969452;28;20070;-84
2023/12/27 00:54:02;;;;;;;5.40;1.08;;;2.00;99.90;;;;;;4952767;28;20616;-84
2023/12/27 00:56:28;;;;;;;0.55;0.30;;;1.90;99.90;;;;;;4955814;28;20618;-84
2023/12/27 00:58:54;;;;;;;2.45;0.40;;;1.90;99.90;;;;;;4968409;28;20384;-84
2023/12/27 01:01:19;;;;;;;0.75;0.28;;;1.90;99.90;;;;;;4969769;28;20458;-83
2023/12/27 01:03:45;;;;;;;0.10;0.10;;;1.90;99.90;;;;;;4968596;28;20043;-84
2023/12/27 01:06:11;;;;;;;1.23;0.43;;;1.90;99.90;;;;;;4970369;28;20077;-83
2023/12/27 01:08:37;;;;;;;1.08;0.22;;;1.90;99.90;;;;;;4971700;28;20514;-83
2023/12/27 01:11:03;;;;;;;2.30;0.50;;;1.80;99.90;;;;;;4953115;28;20043;-84
2023/12/27 01:13:29;;;;;;;1.70;0.68;;;1.90;99.90;;;;;;4956162;28;20035;-83
2023/12/27 01:15:55;;;;;;;0.85;0.40;;;1.80;99.90;;;;;;4967588;28;20137;-83
2023/12/27 01:18:21;;;;;;;5.78;0.47;;;1.80;99.90;;;;;;4957075;28;20061;-83
2023/12/27 01:20:47;;;;;;;0.88;0.40;;;1.80;99.90;;;;;;4971351;28;20043;-83
2023/12/27 01:23:13;;;;;;;2.75;0.63;;;1.80;99.90;;;;;;4971840;28;20046;-83
2023/12/27 01:25:38;;;;;;;0.10;0.10;;;1.80;99.90;;;;;;4972051;28;20392;-83
2023/12/27 01:28:04;;;;;;;1.35;0.63;;;1.70;99.90;;;;;;4973979;28;20070;-83
2023/12/27 01:30:30;;;;;;;0.52;0.20;;;1.70;99.90;;;;;;4968778;28;20564;-83
2023/12/27 01:32:56;;;;;;;1.30;0.73;;;1.70;99.90;;;;;;4972573;28;20043;-83
2023/12/27 01:35:21;;;;;;;0.68;0.40;;;1.70;99.90;;;;;;4973281;28;20046;-83
2023/12/27 01:37:47;;;;;;;1.15;0.88;;;1.70;99.90;;;;;;4960980;28;20390;-83
2023/12/27 01:40:15;;;;;;;0.22;0.22;;;1.70;99.90;;;;;;4975150;28;20113;-83
2023/12/27 01:42:40;;;;;;;0.30;0.30;;;1.60;99.90;;;;;;4955383;28;20074;-83
2023/12/27 01:45:07;;;;;;;2.90;0.63;;;1.70;99.90;;;;;;4973491;28;20499;-83
2023/12/27 01:47:37;;;;;;;5.13;1.35;;;1.60;99.90;;;;;;4956066;29;20051;-84
2023/12/27 01:50:09;;;;;;;0.32;0.28;;;1.70;99.90;;;;;;4973740;28;20606;-83
2023/12/27 01:52:41;;;;;;;0.35;0.32;;;1.70;99.90;;;;;;4958681;28;20073;-83
2023/12/27 01:55:09;;;;;;;12.95;0.68;;;1.70;99.90;;;;;;4962096;28;20075;-83
2023/12/27 01:57:38;;;;;;;0.70;0.35;;;1.70;99.90;;;;;;4976835;28;20039;-82
2023/12/27 02:00:09;;;;;;;4.35;0.35;;;1.80;99.90;;;;;;4959754;28;20550;-83
2023/12/27 02:02:39;;;;;;;0.50;0.50;;;1.80;99.90;;;;;;4971883;28;20407;-83
2023/12/27 02:05:06;;;;;;;1.00;0.50;;;1.80;99.90;;;;;;4963329;28;20095;-83
2023/12/27 02:07:32;;;;;;;1.55;0.70;;;1.80;99.90;;;;;;4967602;28;20120;-83
2023/12/27 02:09:58;;;;;;;0.30;0.30;;;1.80;99.90;;;;;;4964840;28;20053;-83
2023/12/27 02:12:29;;;;;;;3.20;0.63;;;1.80;99.90;;;;;;4981268;28;20078;-83
2023/12/27 02:14:55;;;;;;;1.90;0.50;;;1.70;99.90;;;;;;4964029;28;20045;-83
2023/12/27 02:17:22;;;;;;;0.45;0.20;;;1.70;99.90;;;;;;4965826;28;20523;-83
2023/12/27 02:19:49;;;;;;;1.00;0.50;;;1.60;99.90;;;;;;4983198;28;20114;-83
2023/12/27 02:22:22;;;;;;;0.43;0.43;;;1.70;99.90;;;;;;4980719;28;20049;-83
2023/12/27 02:24:53;;;;;;;1.40;0.50;;;1.60;99.90;;;;;;4981382;28;20067;-83
2023/12/27 02:27:20;;;;;;;0.52;0.20;;;1.60;99.90;;;;;;4983394;28;20296;-83
2023/12/27 02:29:46;;;;;;;3.60;0.75;;;1.60;99.90;;;;;;4986375;28;20065;-83
2023/12/27 02:32:11;;;;;;;1.48;0.70;;;1.70;99.90;;;;;;4969628;28;20046;-83
2023/12/27 02:34:37;;;;;;;0.10;0.10;;;1.70;99.90;;;;;;4985559;28;20122;-83
2023/12/27 02:37:03;;;;;;;1.58;0.28;;;1.80;99.90;;;;;;4980293;28;20047;-83
2023/12/27 02:39:29;;;;;;;0.50;0.30;;;1.70;99.90;;;;;;4962627;28;20043;-83
2023/12/27 02:41:55;;;;;;;1.05;0.47;;;1.60;99.90;;;;;;4979257;28;20098;-83
2023/12/27 02:44:20;;;;;;;0.88;0.65;;;1.70;99.90;;;;;;4968102;28;20042;-83
2023/12/27 02:46:46;;;;;;;0.85;0.45;;;1.70;99.90;;;;;;4971172;28;20035;-83
2023/12/27 02:49:12;;;;;;;0.85;0.55;;;1.80;99.90;;;;;;4981620;28;20055;-83
2023/12/27 02:51:38;;;;;;;0.50;0.15;;;1.70;99.90;;;;;;4958750;28;20045;-83
2023/12/27 02:54:03;;;;;;;0.98;0.45;;;1.80;99.90;;;;;;4985299;28;20707;-83
2023/12/27 02:56:29;;;;;;;3.42;0.70;;;1.80;99.90;;;;;;4984611;28;20050;-83
2023/12/27 02:58:55;;;;;;;1.65;1.20;;;1.80;99.90;;;;;;4983358;28;20027;-83
2023/12/27 03:01:20;;;;;;;0.52;0.40;;;1.90;99.90;;;;;;4978955;28;20051;-83
2023/12/27 03:03:46;;;;;;;0.55;0.32;;;1.90;99.90;;;;;;4983061;28;20047;-83
2023/12/27 03:06:12;;;;;;;0.40;0.40;;;2.00;99.90;;;;;;4972024;28;20042;-83
2023/12/27 03:08:37;;;;;;;1.30;0.38;;;1.90;99.90;;;;;;4978148;28;20070;-83
2023/12/27 03:11:06;;;;;;;1.80;0.40;;;2.00;99.90;;;;;;4964897;28;20126;-83
2023/12/27 03:13:32;;;;;;;0.93;0.30;;;2.00;99.90;;;;;;4976091;28;20039;-83
2023/12/27 03:15:58;;;;;;;1.20;0.70;;;2.00;99.90;;;;;;4980635;28;20037;-83
2023/12/27 03:18:23;;;;;;;1.02;0.35;;;2.00;99.90;;;;;;4965591;28;20090;-83
2023/12/27 03:20:49;;;;;;;1.65;0.45;;;2.10;99.90;;;;;;4981726;28;20053;-83
2023/12/27 03:23:15;;;;;;;0.65;0.40;;;2.10;99.90;;;;;;4967764;28;20030;-83
2023/12/27 03:25:41;;;;;;;1.55;0.80;;;2.10;99.90;;;;;;4988028;28;20050;-83
2023/12/27 03:28:07;;;;;;;1.17;0.30;;;2.10;99.90;;;;;;4988298;28;20042;-83
2023/12/27 03:30:33;;;;;;;10.60;0.55;;;2.10;99.90;;;;;;4977881;28;20059;-83
2023/12/27 03:32:58;;;;;;;0.60;0.60;;;2.10;99.90;;;;;;4974726;28;20042;-83
2023/12/27 03:35:24;;;;;;;1.02;0.68;;;2.10;99.90;;;;;;4984903;28;20977;-83
2023/12/27 03:37:50;;;;;;;2.35;0.55;;;2.00;99.90;;;;;;4974833;28;20042;-83
2023/12/27 03:40:15;;;;;;;1.23;0.52;;;2.00;99.90;;;;;;4989942;28;20041;-83
2023/12/27 03:42:41;;;;;;;1.52;0.65;;;2.00;99.90;;;;;;4973427;28;20039;-83
2023/12/27 03:45:07;;;;;;;2.13;0.45;;;2.00;99.90;;;;;;4973605;28;20031;-83
2023/12/27 03:47:33;;;;;;;0.52;0.30;;;2.00;99.90;;;;;;4987473;28;20034;-83
2023/12/27 03:50:02;;;;;;;0.93;0.30;;;2.00;99.90;;;;;;4986875;28;20059;-83
2023/12/27 03:52:27;;;;;;;3.25;1.17;;;2.00;99.90;;;;;;4986235;28;20047;-83
2023/12/27 03:54:53;;;;;;;0.55;0.25;;;2.00;99.90;;;;;;4983176;28;20045;-83
2023/12/27 03:57:19;;;;;;;0.70;0.28;;;2.00;99.90;;;;;;4985007;28;20039;-84
2023/12/27 03:59:44;;;;;;;0.68;0.45;;;2.00;99.90;;;;;;4966299;28;20479;-83
2023/12/27 04:02:10;;;;;;;0.30;0.28;;;2.00;99.90;;;;;;4984046;28;20035;-83
2023/12/27 04:04:38;;;;;;;0.38;0.25;;;2.00;99.90;;;;;;4967400;28;20530;-83
2023/12/27 04:07:04;;;;;;;0.30;0.25;;;2.10;99.90;;;;;;4982013;28;20046;-83
2023/12/27 04:09:30;;;;;;;1.00;0.77;;;2.10;99.90;;;;;;4966173;28;20664;-83
2023/12/27 04:11:56;;;;;;;0.38;0.22;;;2.10;99.90;;;;;;4966348;28;20049;-83
2023/12/27 04:14:21;;;;;;;0.47;0.45;;;2.10;99.90;;;;;;4980201;28;20112;-83
2023/12/27 04:16:47;;;;;;;0.35;0.20;;;2.20;99.90;;;;;;4964866;28;20541;-83
2023/12/27 04:19:13;;;;;;;0.75;0.63;;;2.20;99.90;;;;;;4984290;28;20042;-84
2023/12/27 04:21:41;;;;;;;1.10;0.98;;;2.20;99.90;;;;;;4972250;28;20862;-84
2023/12/27 04:24:08;;;;;;;0.80;0.70;;;2.10;99.90;;;;;;4980190;28;20122;-83
2023/12/27 04:26:37;;;;;;;4.00;0.82;;;2.20;99.90;;;;;;4980245;28;20085;-83
2023/12/27 04:29:03;;;;;;;0.52;0.47;;;2.20;99.90;;;;;;4977437;28;20046;-83
2023/12/27 04:31:29;;;;;;;0.77;0.40;;;2.10;99.90;;;;;;4977557;28;20039;-83
2023/12/27 04:33:55;;;;;;;1.02;0.50;;;2.20;99.90;;;;;;4977552;28;20043;-83
2023/12/27 04:36:20;;;;;;;1.13;0.70;;;2.30;99.90;;;;;;4977828;28;20051;-84
2023/12/27 04:38:46;;;;;;;1.80;0.63;;;2.30;99.90;;;;;;4976466;28;20038;-83
2023/12/27 04:41:12;;;;;;;0.57;0.43;;;2.30;99.90;;;;;;4980222;28;20043;-83
2023/12/27 04:43:37;;;;;;;1.13;0.70;;;2.30;99.90;;;;;;4980368;28;20047;-83
2023/12/27 04:46:03;;;;;;;1.83;0.50;;;2.40;99.90;;;;;;4972909;28;20050;-83
2023/12/27 04:48:29;;;;;;;0.03;0.03;;;2.50;99.90;;;;;;4980124;28;20066;-82
2023/12/27 04:50:55;;;;;;;0.52;0.30;;;2.40;99.90;;;;;;4981157;28;20055;-82
2023/12/27 04:53:20;;;;;;;1.70;0.90;;;2.40;99.90;;;;;;4964035;28;20105;-83
2023/12/27 04:55:46;;;;;;;0.40;0.30;;;2.40;99.90;;;;;;4966363;28;20043;-83
2023/12/27 04:58:12;;;;;;;0.77;0.60;;;2.40;99.90;;;;;;4983204;28;20039;-82
2023/12/27 05:00:38;;;;;;;0.38;0.30;;;2.40;99.90;;;;;;4980831;28;20066;-82
2023/12/27 05:03:04;;;;;;;0.57;0.35;;;2.40;99.90;;;;;;4964978;28;20546;-82
2023/12/27 05:05:30;;;;;;;0.57;0.30;;;2.40;99.90;;;;;;4964402;28;20042;-83
2023/12/27 05:07:56;;;;;;;0.60;0.30;;;2.50;99.90;;;;;;4967069;28;20078;-83
2023/12/27 05:10:22;;;;;;;1.30;1.00;;;2.50;99.90;;;;;;4981585;28;20049;-83
2023/12/27 05:12:48;;;;;;;1.55;0.57;;;2.50;99.90;;;;;;4968676;28;20065;-83
2023/12/27 05:15:13;;;;;;;3.50;0.50;;;2.50;99.90;;;;;;4981776;28;20038;-83
2023/12/27 05:17:39;;;;;;;0.45;0.40;;;2.50;99.90;;;;;;4982230;28;20089;-83
2023/12/27 05:20:06;;;;;;;1.35;0.43;;;2.50;99.90;;;;;;4979850;28;20053;-82
2023/12/27 05:22:34;;;;;;;1.35;0.68;;;2.50;99.90;;;;;;4979742;28;20082;-83
2023/12/27 05:25:01;;;;;;;1.35;0.93;;;2.50;99.90;;;;;;4979495;28;20059;-83
2023/12/27 05:27:28;;;;;;;1.60;0.40;;;2.60;99.90;;;;;;4982185;28;20047;-83
2023/12/27 05:29:54;;;;;;;1.98;0.75;;;2.60;99.90;;;;;;4965231;28;20045;-83
2023/12/27 05:32:21;;;;;;;0.30;0.30;;;2.60;99.90;;;;;;4979812;28;20047;-82
2023/12/27 05:34:46;;;;;;;0.40;0.40;;;2.70;99.90;;;;;;4981711;28;20069;-83
2023/12/27 05:37:12;;;;;;;0.90;0.43;;;2.70;99.90;;;;;;4984057;28;20047;-83
2023/12/27 05:39:38;;;;;;;0.32;0.32;;;2.80;99.90;;;;;;4975671;28;20728;-82
2023/12/27 05:42:03;;;;;;;1.67;0.73;;;2.70;99.90;;;;;;4985772;28;20042;-83
2023/12/27 05:44:29;;;;;;;0.50;0.40;;;2.80;99.90;;;;;;4981508;28;20039;-82
2023/12/27 05:46:55;;;;;;;0.50;0.30;;;2.80;99.90;;;;;;4984234;28;20276;-82
2023/12/27 05:49:21;;;;;;;1.40;0.60;;;2.70;99.90;;;;;;4984217;28;20059;-82
2023/12/27 05:51:47;;;;;;;0.90;0.55;;;2.80;99.90;;;;;;4985154;28;20106;-82
2023/12/27 05:54:13;;;;;;;1.38;0.88;;;2.80;99.90;;;;;;4985216;28;20039;-83
2023/12/27 05:56:40;;;;;;;0.13;0.13;;;2.80;99.90;;;;;;4985594;28;20053;-82
2023/12/27 05:59:06;;;;;;;0.70;0.60;;;2.80;99.90;;;;;;4985749;28;20046;-83
2023/12/27 06:01:32;;;;;;;1.42;0.80;;;2.90;99.90;;;;;;4971654;28;20063;-83
2023/12/27 06:03:59;;;;;;;1.13;0.85;;;2.80;99.90;;;;;;4988978;28;20039;-83
2023/12/27 06:06:25;;;;;;;0.70;0.52;;;2.90;99.90;;;;;;4988880;28;20043;-82
2023/12/27 06:08:50;;;;;;;1.58;1.08;;;2.90;99.90;;;;;;4972406;28;20106;-83
2023/12/27 06:11:16;;;;;;;0.52;0.40;;;2.90;99.90;;;;;;4988008;28;20040;-82
2023/12/27 06:13:42;;;;;;;2.50;0.85;;;3.00;99.90;;;;;;4988189;28;20037;-83
2023/12/27 06:16:09;;;;;;;0.35;0.32;;;3.00;99.90;;;;;;4971744;28;20055;-83
2023/12/27 06:18:35;;;;;;;2.25;0.70;;;3.00;99.90;;;;;;4988341;28;20035;-83
2023/12/27 06:21:01;;;;;;;0.70;0.63;;;3.00;99.90;;;;;;4974512;28;20207;-83
2023/12/27 06:23:28;;;;;;;5.30;1.45;;;3.00;99.90;;;;;;4972196;28;20046;-83
2023/12/27 06:25:55;;;;;;;0.60;0.50;;;3.00;99.90;;;;;;4991513;28;20069;-83
2023/12/27 06:28:20;;;;;;;0.82;0.68;;;3.10;99.90;;;;;;4990243;28;20081;-83
2023/12/27 06:30:47;;;;;;;2.45;1.05;;;3.10;99.90;;;;;;4969165;28;20043;-83
2023/12/27 06:33:13;;;;;;;1.85;0.65;;;3.10;99.90;;;;;;4991664;28;20047;-83
2023/12/27 06:35:38;;;;;;;2.00;1.17;;;3.10;99.90;;;;;;4974913;28;20401;-83
2023/12/27 06:38:04;;;;;;;1.60;0.90;;;3.30;99.90;;;;;;4975269;28;20015;-83
2023/12/27 06:40:30;;;;;;;2.35;1.25;;;3.20;99.90;;;;;;4986085;28;20042;-83
2023/12/27 06:42:55;;;;;;;0.52;0.28;;;3.20;99.90;;;;;;4978058;28;20053;-83
2023/12/27 06:45:21;;;;;;;3.90;0.93;;;3.30;99.90;;;;;;4977064;28;20023;-83
2023/12/27 06:47:47;;;;;;;5.40;1.20;;;3.30;99.90;;;;;;4994199;28;20034;-83
2023/12/27 06:50:13;;;;;;;10.48;0.85;;;3.30;99.90;;;;;;4990404;23;20082;-73
2023/12/27 06:52:38;;;;;;;1.45;0.60;;;3.40;99.90;;;;;;4970201;28;20081;-74
2023/12/27 06:55:05;;;;;;;3.13;0.70;;;3.40;99.90;;;;;;4984342;28;20403;-74
2023/12/27 06:57:30;;;;;;;0.20;0.20;;;3.40;99.90;;;;;;4970607;28;20042;-74
2023/12/27 06:59:56;;;;;;;0.68;0.63;;;3.50;99.90;;;;;;4985365;28;20088;-74
2023/12/27 07:02:22;;;;;;;1.45;0.70;;;3.50;99.90;;;;;;4970359;28;20049;-74
2023/12/27 07:04:47;;;;;;;0.50;0.40;;;3.60;99.90;;;;;;4979605;28;20059;-74
2023/12/27 07:07:13;;;;;;;1.48;0.73;;;3.60;99.90;;;;;;4984436;28;20130;-74
2023/12/27 07:09:39;;;;;;;0.55;0.43;;;3.60;99.90;;;;;;4963898;28;20190;-74
2023/12/27 07:12:05;;;;;;;1.50;0.80;;;3.60;99.90;;;;;;4984220;28;20034;-74
2023/12/27 07:14:31;;;;;;;2.63;0.40;;;3.60;99.90;;;;;;4985321;28;20104;-74
2023/12/27 07:16:56;;;;;;;3.25;0.98;;;3.70;99.90;;;;;;4966314;28;20046;-74
2023/12/27 07:19:22;;;;;;;1.45;1.35;;;3.70;99.90;;;;;;4968224;28;20125;-74
2023/12/27 07:21:48;;;;;;;2.53;0.80;;;3.70;99.90;;;;;;4967165;28;20437;-74
2023/12/27 07:24:14;;;;;;;2.80;1.20;;;3.80;99.90;;;;;;4983715;28;20546;-74
2023/12/27 07:26:39;;;;;;;3.25;0.85;;;3.80;99.90;;;;;;4980539;28;20506;-74
2023/12/27 07:29:05;;;;;;;10.35;1.33;;;3.90;99.90;;;;;;4985506;28;20042;-74
2023/12/27 07:31:31;;;;;;;4.43;1.33;;;3.90;99.90;;;;;;4979981;28;20081;-74
2023/12/27 07:33:56;;;;;;;2.42;0.70;;;4.00;99.90;;;;;;4986113;28;20046;-74
2023/12/27 07:36:22;;;;;;;11.68;0.63;;;4.00;99.90;;;;;;4979834;28;20088;-74
2023/12/27 07:38:48;;;;;;;9.00;0.70;;;4.00;99.90;;;;;;4986881;28;20030;-74
2023/12/27 07:41:14;;;;;;;1.40;0.70;;;4.20;99.90;;;;;;4976078;28;20161;-74
2023/12/27 07:43:41;;;;;;;1.80;0.85;;;4.10;99.90;;;;;;4968298;28;20043;-74
2023/12/27 07:46:07;;;;;;;2.47;0.77;;;4.20;99.90;;;;;;4985217;28;20483;-74
2023/12/27 07:48:33;;;;;;;1.88;0.73;;;4.20;99.90;;;;;;4983942;28;20065;-74
2023/12/27 07:50:59;;;;;;;1.25;0.68;;;4.30;99.90;;;;;;4983276;28;20066;-74
2023/12/27 07:53:25;;;;;;;1.10;0.35;;;4.30;99.90;;;;;;4982810;28;20209;-74
2023/12/27 07:55:51;;;;;;;0.70;0.40;;;4.30;99.90;;;;;;4986145;28;20679;-74
2023/12/27 07:58:16;;;;;;;1.92;0.88;;;4.30;99.90;;;;;;4978601;28;20134;-74
2023/12/27 08:00:42;;;;;;;3.88;0.68;;;4.40;99.90;;;;;;4971608;28;20367;-74
2023/12/27 08:03:08;;;;;;;1.58;1.13;;;4.40;99.90;;;;;;4984727;28;20050;-74
2023/12/27 08:05:35;;;;;;;1.38;0.80;;;4.50;99.90;;;;;;4986798;28;20061;-73
2023/12/27 08:08:05;;;;;;;5.72;1.27;;;4.50;99.90;;;;;;4985843;28;20065;-74
2023/12/27 08:10:31;;;;;;;6.75;1.63;;;4.50;99.90;;;;;;4989622;28;20077;-74
2023/12/27 08:12:58;;;;;;;7.13;1.45;;;4.50;99.90;;;;;;4972940;28;20137;-74
2023/12/27 08:15:24;;;;;;;0.98;0.82;;;4.60;99.90;;;;;;4990131;28;20077;-74
2023/12/27 08:17:49;;;;;;;0.98;0.82;;;4.70;99.90;;;;;;4972019;28;20130;-73
2023/12/27 08:20:15;;;;;;;1.13;1.00;;;4.70;99.90;;;;;;4987595;28;20040;-73
2023/12/27 08:22:41;;;;;;;1.63;0.73;;;4.70;99.90;;;;;;4988977;28;20060;-73
2023/12/27 08:25:12;;;;;;;2.60;1.00;;;4.70;99.90;;;;;;4985347;28;20038;-73
2023/12/27 08:27:38;;;;;;;1.15;0.63;;;4.80;99.90;;;;;;4986382;28;20039;-73
2023/12/27 08:30:05;;;;;;;2.45;1.05;;;4.90;99.90;;;;;;4971294;28;20129;-73
2023/12/27 08:32:31;;;;;;;4.03;1.02;;;4.90;99.90;;;;;;4974426;28;20062;-73
2023/12/27 08:34:56;;;;;;;0.70;0.55;;;4.90;99.90;;;;;;4987084;28;20038;-73
2023/12/27 08:37:22;;;;;;;2.88;0.88;;;4.90;99.90;;;;;;4987615;28;20996;-73
2023/12/27 08:39:48;;;;;;;1.17;0.80;;;4.90;99.90;;;;;;4987566;28;20093;-73
2023/12/27 08:42:14;;;;;;;1.42;0.70;;;5.00;99.90;;;;;;4988432;28;20039;-73
2023/12/27 08:44:40;;;;;;;1.23;0.55;;;5.00;99.90;;;;;;4986158;28;20042;-73
2023/12/27 08:47:05;;;;;;;1.05;0.65;;;5.00;99.90;;;;;;4988955;28;20457;-74
2023/12/27 08:49:31;;;;;;;0.77;0.65;;;5.00;99.90;;;;;;4971405;28;20395;-74
2023/12/27 08:51:57;;;;;;;1.85;0.52;;;5.10;99.90;;;;;;4986457;28;20585;-74
2023/12/27 08:54:23;;;;;;;2.35;0.77;;;5.10;99.90;;;;;;4982471;28;20039;-73
2023/12/27 08:56:48;;;;;;;1.30;0.90;;;5.10;99.90;;;;;;4984064;28;20030;-73
2023/12/27 08:59:14;;;;;;;2.20;1.08;;;5.10;99.90;;;;;;4989117;28;20043;-73
2023/12/27 09:01:40;;;;;;;1.02;0.40;;;5.20;99.90;;;;;;4987306;28;20042;-73
2023/12/27 09:04:05;;;;;;;0.90;0.75;;;5.20;99.90;;;;;;4987733;28;20073;-73
2023/12/27 09:06:31;;;;;;;7.35;2.15;;;5.20;99.90;;;;;;4983486;28;20125;-74
2023/12/27 09:08:57;;;;;;;3.85;1.40;;;5.20;99.90;;;;;;4984104;28;20037;-74
2023/12/27 09:11:23;;;;;;;1.85;1.08;;;5.20;99.90;;;;;;4984090;28;20489;-73
2023/12/27 09:13:48;;;;;;;4.53;0.88;;;5.20;99.90;;;;;;4986305;28;20037;-73
2023/12/27 09:16:14;;;;;;;1.63;0.88;;;5.30;99.90;;;;;;4988259;28;20446;-73
2023/12/27 09:18:40;;;;;;;2.42;1.10;;;5.30;99.90;;;;;;4972473;28;20093;-73
2023/12/27 09:21:06;;;;;;;1.98;0.93;;;5.30;99.90;;;;;;4970042;28;20042;-73
2023/12/27 09:23:31;;;;;;;1.60;0.88;;;5.40;99.90;;;;;;4986934;28;20054;-73
2023/12/27 09:25:57;;;;;;;1.70;1.08;;;5.40;99.90;;;;;;4979817;28;20049;-74
2023/12/27 09:28:25;;;;;;;1.15;0.98;;;5.40;99.90;;;;;;4977064;28;20060;-73
2023/12/27 09:30:52;;;;;;;6.22;1.58;;;5.40;99.90;;;;;;4980301;28;20481;-73
2023/12/27 09:33:17;;;;;;;8.88;2.28;;;5.50;99.90;;;;;;4965022;28;20129;-73
2023/12/27 09:35:43;;;;;;;6.82;1.73;;;5.50;99.90;;;;;;4970814;28;20439;-73
2023/12/27 09:38:09;;;;;;;2.38;1.23;;;5.50;99.90;;;;;;4979350;28;20038;-73
2023/12/27 09:40:35;;;;;;;10.50;1.48;;;5.50;99.90;;;;;;4987659;28;20486;-73
2023/12/27 09:43:03;;;;;;;2.15;0.68;;;5.60;99.90;;;;;;4980919;28;20073;-73
2023/12/27 09:45:34;;;;;;;2.40;1.25;;;5.60;99.90;;;;;;4987504;28;20117;-73
2023/12/27 09:48:02;;;;;;;2.85;1.10;;;5.60;99.90;;;;;;4983290;28;20078;-73
2023/12/27 09:50:28;;;;;;;1.85;0.80;;;5.70;99.90;;;;;;4984954;28;20505;-73
2023/12/27 09:52:56;;;;;;;3.97;1.58;;;5.70;99.90;;;;;;4965478;28;20077;-73
2023/12/27 09:55:22;;;;;;;2.25;0.95;;;5.70;99.90;;;;;;4980062;28;20034;-73
2023/12/27 09:57:50;;;;;;;3.58;1.10;;;5.70;99.90;;;;;;4982990;28;20455;-73
2023/12/27 10:00:16;;;;;;;1.02;0.82;;;5.70;99.90;;;;;;4986681;28;20129;-73
2023/12/27 10:02:44;;;;;;;3.15;1.38;;;5.80;99.90;;;;;;4966419;28;20049;-73
2023/12/27 10:05:19;;;;;;;11.32;1.80;;;5.80;99.90;;;;;;4982491;28;20161;-73
2023/12/27 10:07:45;;;;;;;3.80;1.77;;;5.80;99.90;;;;;;4975891;28;20185;-73
2023/12/27 10:10:11;;;;;;;2.95;1.45;;;5.80;99.90;;;;;;4985636;28;20084;-73
2023/12/27 10:12:39;;;;;;;3.10;1.33;;;5.80;99.90;;;;;;4970616;28;20043;-72
2023/12/27 10:15:07;;;;;;;4.07;0.82;;;5.90;99.90;;;;;;4980499;28;20081;-73
2023/12/27 10:17:33;;;;;;;3.33;1.95;;;5.90;99.90;;;;;;4986735;28;20098;-73
2023/12/27 10:19:59;;;;;;;11.10;2.25;;;5.90;99.90;;;;;;4967031;28;20046;-74
2023/12/27 10:22:27;;;;;;;2.70;1.15;;;5.90;99.90;;;;;;4986127;28;20124;-74
2023/12/27 10:24:53;;;;;;;4.72;1.98;;;5.90;99.90;;;;;;4980784;28;20073;-73
2023/12/27 10:27:20;;;;;;;6.60;1.23;;;5.90;99.90;;;;;;4983916;28;20090;-73
2023/12/27 10:30:03;;;;;;;3.42;1.58;;;5.90;99.90;;;;;;4972043;28;20074;-73
2023/12/27 10:32:29;;;;;;;2.85;1.90;;;5.90;99.90;;;;;;4965317;28;20587;-74
2023/12/27 10:34:54;;;;;;;2.42;1.70;;;5.90;99.90;;;;;;4970357;28;20030;-73
2023/12/27 10:37:20;;;;;;;1.60;1.30;;;6.00;99.90;;;;;;4983881;28;20041;-74
2023/12/27 10:39:46;;;;;;;1.20;0.85;;;5.90;99.90;;;;;;4985869;28;20112;-74
2023/12/27 10:42:16;;;;;;;2.25;1.60;;;6.00;99.90;;;;;;4986177;28;20125;-75
2023/12/27 10:44:46;;;;;;;6.78;1.65;;;6.00;99.90;;;;;;4986077;28;20106;-74
2023/12/27 10:47:17;;;;;;;6.85;1.85;;;6.00;99.90;;;;;;4975588;28;20413;-75
2023/12/27 10:49:46;;;;;;;4.28;1.25;;;6.00;99.90;;;;;;4977847;28;20451;-74
2023/12/27 10:52:15;;;;;;;2.55;2.03;;;5.90;99.90;;;;;;4984968;28;20128;-75
2023/12/27 10:54:46;;;;;;;2.25;1.67;;;6.00;99.90;;;;;;4963495;28;20052;-74
2023/12/27 10:57:21;;;;;;;3.33;1.10;;;6.00;99.90;;;;;;4983103;28;20046;-74
2023/12/27 10:59:48;;;;;;;1.48;1.38;;;5.90;99.90;;;;;;4986193;28;20034;-75
2023/12/27 11:02:14;;;;;;;1.73;0.93;;;6.00;99.90;;;;;;4984067;28;20472;-74
2023/12/27 11:04:43;;;;;;;5.30;1.27;;;6.00;99.90;;;;;;4986537;28;20050;-74
2023/12/27 11:07:11;;;;;;;4.25;1.00;;;6.00;99.90;;;;;;4968484;28;20108;-74
2023/12/27 11:09:38;;;;;;;7.70;1.90;;;6.00;99.90;;;;;;4986055;28;20042;-74
2023/12/27 11:12:07;;;;;;;3.20;1.30;;;6.00;99.90;;;;;;4981821;28;20046;-74
2023/12/27 11:14:35;;;;;;;2.30;1.75;;;6.00;99.90;;;;;;4983288;28;20053;-75
2023/12/27 11:17:05;;;;;;;2.30;1.58;;;6.00;99.90;;;;;;4969638;28;20398;-75
2023/12/27 11:19:33;;;;;;;2.85;1.15;;;6.00;99.90;;;;;;4987246;28;20394;-74
2023/12/27 11:21:59;;;;;;;3.05;1.65;;;5.90;99.90;;;;;;4984763;28;20034;-74
2023/12/27 11:24:25;;;;;;;3.60;2.00;;;5.90;99.90;;;;;;4987964;28;20101;-76
2023/12/27 11:27:01;;;;;;;1.73;1.20;;;6.00;99.90;;;;;;4986030;28;20307;-75
2023/12/27 11:29:29;;;;;;;1.75;1.17;;;5.90;99.90;;;;;;4970849;28;20045;-75
2023/12/27 11:31:59;;;;;;;5.47;1.90;;;5.90;99.90;;;;;;4985982;28;20053;-75
2023/12/27 11:34:25;;;;;;;2.35;1.33;;;5.90;99.90;;;;;;4974004;28;20070;-75
2023/12/27 11:36:51;;;;;;;2.88;1.17;;;5.90;99.90;;;;;;4989745;28;20073;-77
2023/12/27 11:39:23;;;;;;;2.97;1.52;;;5.90;99.90;;;;;;4978542;28;20070;-77
2023/12/27 11:41:49;;;;;;;3.00;1.05;;;6.00;99.90;;;;;;4982823;28;20042;-76
2023/12/27 11:44:17;;;;;;;2.40;1.60;;;5.90;99.90;;;;;;4989555;28;20183;-75
2023/12/27 11:46:43;;;;;;;4.68;1.45;;;5.90;99.90;;;;;;4983589;28;20117;-76
2023/12/27 11:49:18;;;;;;;2.35;1.77;;;5.90;99.90;;;;;;4989256;28;20049;-76
2023/12/27 11:51:45;;;;;;;2.67;1.60;;;5.90;99.90;;;;;;4987444;28;20564;-75
2023/12/27 11:54:20;;;;;;;4.72;1.83;;;6.00;99.90;;;;;;4988613;28;20474;-74
2023/12/27 11:56:46;;;;;;;3.05;1.95;;;6.00;99.90;;;;;;4972519;28;20038;-74
2023/12/27 11:59:12;;;;;;;2.22;1.30;;;6.00;99.90;;;;;;4988477;28;20482;-73
2023/12/27 12:01:41;;;;;;;2.13;1.50;;;6.00;99.90;;;;;;4970518;28;20777;-73
2023/12/27 12:04:30;;;;;;;1.48;1.10;;;6.00;99.90;;;;;;4991379;28;20481;-73
2023/12/27 12:07:11;;;;;;;3.60;1.95;;;6.00;99.90;;;;;;4983594;28;20044;-72
2023/12/27 12:09:41;;;;;;;3.55;1.25;;;6.10;99.90;;;;;;4988948;28;20099;-73
2023/12/27 12:12:18;;;;;;;2.40;1.38;;;6.10;99.90;;;;;;4982429;28;20533;-73
2023/12/27 12:14:44;;;;;;;1.75;0.82;;;6.10;99.90;;;;;;4970560;28;20513;-73
2023/12/27 12:17:12;;;;;;;2.55;1.25;;;6.10;99.90;;;;;;4984796;28;20046;-72
2023/12/27 12:19:38;;;;;;;2.95;2.22;;;6.20;99.90;;;;;;4987488;28;20038;-72
2023/12/27 12:22:05;;;;;;;1.48;1.05;;;6.20;99.90;;;;;;4987182;28;20042;-72
2023/12/27 12:24:32;;;;;;;4.90;1.75;;;6.20;99.90;;;;;;4989014;28;20043;-71
2023/12/27 12:27:02;;;;;;;1.88;1.20;;;6.20;99.90;;;;;;4988848;28;20051;-72
2023/12/27 12:29:28;;;;;;;1.77;1.27;;;6.30;99.90;;;;;;4987629;28;20116;-71
2023/12/27 12:31:54;;;;;;;1.95;1.33;;;6.40;99.90;;;;;;4989099;28;20403;-71
2023/12/27 12:34:21;;;;;;;4.10;2.15;;;6.40;99.90;;;;;;4986057;28;20048;-72
2023/12/27 12:36:47;;;;;;;1.63;0.93;;;6.50;99.90;;;;;;4987083;28;20034;-72
2023/12/27 12:39:14;;;;;;;3.78;1.88;;;6.60;99.90;;;;;;4983621;28;20088;-72
2023/12/27 12:41:43;;;;;;;1.65;1.45;;;6.60;99.90;;;;;;4987648;28;20129;-72
2023/12/27 12:44:12;;;;;;;3.58;1.80;;;6.60;99.90;;;;;;4968191;28;20050;-72
2023/12/27 12:46:39;;;;;;;2.60;1.85;;;6.70;99.90;;;;;;4986577;28;20046;-72
2023/12/27 12:49:06;;;;;;;6.50;2.58;;;6.70;99.90;;;;;;4987032;28;20050;-72
2023/12/27 12:51:32;;;;;;;2.33;1.65;;;6.80;99.90;;;;;;4972563;28;20125;-72
2023/12/27 12:53:59;;;;;;;2.17;1.73;;;6.80;99.90;;;;;;4983608;28;20482;-72